createdAt,value
2022-09-25T00:00:50.953Z,97805.88
2022-09-25T00:03:52.859Z,97802.31
2022-09-25T00:06:55.947Z,97807.09
2022-09-25T00:09:57.747Z,97806.75
2022-09-25T00:13:00.084Z,97806.06
2022-09-25T00:16:03.222Z,97816.25
2022-09-25T00:19:23.875Z,97813.81
2022-09-25T00:22:27.038Z,97802.97
2022-09-25T00:25:28.927Z,97804.47
2022-09-25T00:28:32.329Z,97803.28
2022-09-25T00:31:35.281Z,97801.66
2022-09-25T00:34:41.292Z,97796.03
2022-09-25T00:37:43.494Z,97797.53
2022-09-25T00:40:47.219Z,97792.09
2022-09-25T00:43:52.051Z,97787.19
2022-09-25T00:46:57.078Z,97788.50
2022-09-25T00:50:01.808Z,97781.75
2022-09-25T00:53:09.456Z,97778.97
2022-09-25T00:56:12.867Z,97769.44
2022-09-25T00:59:18.603Z,97773.38
2022-09-25T01:02:26.111Z,97777.28
2022-09-25T01:05:32.137Z,97766.13
2022-09-25T01:08:35.069Z,97773.69
2022-09-25T01:11:36.888Z,97770.28
2022-09-25T01:14:40.004Z,97764.19
2022-09-25T01:18:03.142Z,97766.94
2022-09-25T01:21:20.702Z,97771.44
2022-09-25T01:24:42.258Z,97761.22
2022-09-25T01:27:50.209Z,97762.53
2022-09-25T01:30:54.762Z,97765.84
2022-09-25T01:34:01.102Z,97766.00
2022-09-25T01:37:10.174Z,97761.06
2022-09-25T01:40:18.394Z,97756.31
2022-09-25T01:43:24.624Z,97754.34
2022-09-25T01:46:35.178Z,97750.56
2022-09-25T01:49:42.559Z,97747.75
2022-09-25T01:52:49.481Z,97750.38
2022-09-25T01:55:55.815Z,97750.56
2022-09-25T01:59:05.074Z,97747.41
2022-09-25T02:02:10.483Z,97743.81
2022-09-25T02:05:43.390Z,97745.63
2022-09-25T02:09:16.112Z,97751.06
2022-09-25T02:12:25.513Z,97749.09
2022-09-25T02:15:33.826Z,97740.03
2022-09-25T02:18:56.273Z,97748.91
2022-09-25T02:22:15.473Z,97744.00
2022-09-25T02:25:26.448Z,97746.28
2022-09-25T02:28:29.224Z,97745.47
2022-09-25T02:31:53.750Z,97748.91
2022-09-25T02:34:58.017Z,97744.81
2022-09-25T02:38:00.277Z,97748.09
2022-09-25T02:41:26.393Z,97750.72
2022-09-25T02:44:28.197Z,97744.66
2022-09-25T02:47:43.080Z,97743.19
2022-09-25T02:51:11.653Z,97742.38
2022-09-25T02:54:21.237Z,97740.88
2022-09-25T02:57:38.828Z,97746.81
2022-09-25T03:00:40.824Z,97751.06
2022-09-25T03:03:45.910Z,97749.28
2022-09-25T03:06:48.067Z,97746.63
2022-09-25T03:09:52.055Z,97739.91
2022-09-25T03:12:53.822Z,97738.91
2022-09-25T03:16:06.507Z,97741.34
2022-09-25T03:19:08.538Z,97738.56
2022-09-25T03:22:10.377Z,97736.41
2022-09-25T03:25:12.177Z,97735.75
2022-09-25T03:28:15.212Z,97729.66
2022-09-25T03:31:17.376Z,97737.06
2022-09-25T03:34:20.048Z,97739.81
2022-09-25T03:37:25.463Z,97745.91
2022-09-25T03:40:28.037Z,97740.78
2022-09-25T03:43:33.886Z,97731.41
2022-09-25T03:46:36.370Z,97724.88
2022-09-25T03:49:38.521Z,97718.16
2022-09-25T03:52:40.476Z,97723.09
2022-09-25T03:55:42.807Z,97734.59
2022-09-25T03:58:45.028Z,97734.59
2022-09-25T04:01:47.527Z,97741.16
2022-09-25T04:04:50.510Z,97742.16
2022-09-25T04:07:52.678Z,97740.84
2022-09-25T04:11:04.855Z,97738.03
2022-09-25T04:14:06.843Z,97741.53
2022-09-25T04:17:08.690Z,97735.94
2022-09-25T04:20:10.419Z,97731.81
2022-09-25T04:23:13.093Z,97734.44
2022-09-25T04:26:14.837Z,97735.13
2022-09-25T04:29:18.021Z,97731.66
2022-09-25T04:32:38.901Z,97731.31
2022-09-25T04:35:41.683Z,97726.72
2022-09-25T04:38:44.350Z,97726.72
2022-09-25T04:41:46.545Z,97729.69
2022-09-25T04:44:49.379Z,97715.56
2022-09-25T04:47:51.417Z,97720.28
2022-09-25T04:50:53.402Z,97731.31
2022-09-25T04:53:56.441Z,97727.81
2022-09-25T04:56:59.055Z,97727.50
2022-09-25T05:00:02.697Z,97731.63
2022-09-25T05:03:05.596Z,97726.69
2022-09-25T05:06:10.941Z,97728.84
2022-09-25T05:09:12.702Z,97736.88
2022-09-25T05:12:15.034Z,97734.56
2022-09-25T05:15:17.208Z,97733.28
2022-09-25T05:18:21.775Z,97717.69
2022-09-25T05:21:24.553Z,97716.53
2022-09-25T05:24:26.661Z,97714.25
2022-09-25T05:27:34.993Z,97717.03
2022-09-25T05:30:39.522Z,97725.41
2022-09-25T05:33:41.969Z,97721.00
2022-09-25T05:36:43.777Z,97731.53
2022-09-25T05:39:46.479Z,97738.63
2022-09-25T05:42:49.356Z,97736.13
2022-09-25T05:45:57.994Z,97732.19
2022-09-25T05:49:01.326Z,97734.47
2022-09-25T05:52:04.449Z,97736.28
2022-09-25T05:55:08.219Z,97740.06
2022-09-25T05:58:10.803Z,97748.72
2022-09-25T06:01:14.407Z,97749.72
2022-09-25T06:04:17.242Z,97755.28
2022-09-25T06:07:19.712Z,97765.69
2022-09-25T06:10:22.371Z,97758.88
2022-09-25T06:13:25.986Z,97758.84
2022-09-25T06:16:29.559Z,97757.84
2022-09-25T06:19:32.930Z,97762.91
2022-09-25T06:22:35.103Z,97757.75
2022-09-25T06:25:38.677Z,97755.13
2022-09-25T06:28:41.210Z,97755.84
2022-09-25T06:31:43.566Z,97756.16
2022-09-25T06:34:45.965Z,97751.22
2022-09-25T06:37:48.669Z,97752.50
2022-09-25T06:40:51.480Z,97755.06
2022-09-25T06:43:53.418Z,97757.13
2022-09-25T06:46:55.535Z,97754.63
2022-09-25T06:49:58.221Z,97748.44
2022-09-25T06:53:01.169Z,97746.03
2022-09-25T06:56:03.726Z,97749.09
2022-09-25T06:59:15.389Z,97755.72
2022-09-25T07:02:37.265Z,97749.00
2022-09-25T07:05:42.728Z,97746.06
2022-09-25T07:08:45.752Z,97742.06
2022-09-25T07:11:51.167Z,97746.38
2022-09-25T07:14:53.816Z,97747.00
2022-09-25T07:17:56.157Z,97748.88
2022-09-25T07:21:06.899Z,97748.06
2022-09-25T07:24:10.338Z,97747.94
2022-09-25T07:27:12.604Z,97750.34
2022-09-25T07:30:15.507Z,97744.53
2022-09-25T07:33:17.723Z,97744.78
2022-09-25T07:36:21.759Z,97741.84
2022-09-25T07:39:23.748Z,97739.78
2022-09-25T07:42:26.143Z,97736.22
2022-09-25T07:45:28.767Z,97736.50
2022-09-25T07:48:34.261Z,97738.00
2022-09-25T07:51:36.239Z,97732.09
2022-09-25T07:54:39.680Z,97719.38
2022-09-25T07:57:44.036Z,97707.41
2022-09-25T08:00:45.978Z,97706.75
2022-09-25T08:03:48.889Z,97716.28
2022-09-25T08:06:50.751Z,97719.88
2022-09-25T08:09:52.904Z,97724.66
2022-09-25T08:12:54.851Z,97719.09
2022-09-25T08:15:57.240Z,97730.00
2022-09-25T08:18:59.274Z,97727.00
2022-09-25T08:22:01.832Z,97725.34
2022-09-25T08:25:04.173Z,97711.44
2022-09-25T08:28:06.664Z,97719.19
2022-09-25T08:31:09.024Z,97725.13
2022-09-25T08:34:39.035Z,97729.28
2022-09-25T08:37:33.171Z,97727.03
2022-09-25T08:40:45.749Z,97715.25
2022-09-25T08:44:10.732Z,97717.09
2022-09-25T08:47:43.684Z,97706.91
2022-09-25T08:50:45.939Z,97704.47
2022-09-25T08:53:48.331Z,97707.59
2022-09-25T08:56:56.750Z,97722.06
2022-09-25T09:00:04.303Z,97719.00
2022-09-25T09:03:06.891Z,97718.91
2022-09-25T09:06:13.378Z,97710.44
2022-09-25T09:09:19.377Z,97715.34
2022-09-25T09:12:34.705Z,97713.78
2022-09-25T09:15:59.606Z,97713.84
2022-09-25T09:19:04.146Z,97715.19
2022-09-25T09:22:14.215Z,97716.00
2022-09-25T09:26:05.288Z,97716.81
2022-09-25T09:29:34.497Z,97713.31
2022-09-25T09:32:36.607Z,97710.03
2022-09-25T09:35:57.277Z,97709.41
2022-09-25T09:39:03.226Z,97711.91
2022-09-25T09:42:10.286Z,97704.50
2022-09-25T09:45:15.301Z,97712.03
2022-09-25T09:48:17.333Z,97714.75
2022-09-25T09:51:23.873Z,97716.19
2022-09-25T09:54:47.205Z,97721.13
2022-09-25T09:57:52.717Z,97726.66
2022-09-25T10:00:55.258Z,97723.69
2022-09-25T10:04:17.676Z,97723.09
2022-09-25T10:07:22.887Z,97723.28
2022-09-25T10:10:34.032Z,97721.53
2022-09-25T10:13:40.134Z,97723.59
2022-09-25T10:16:42.191Z,97717.81
2022-09-25T10:19:57.632Z,97714.72
2022-09-25T10:23:01.209Z,97709.09
2022-09-25T10:26:03.177Z,97700.50
2022-09-25T10:29:27.988Z,97712.25
2022-09-25T10:32:30.815Z,97712.19
2022-09-25T10:35:39.498Z,97712.75
2022-09-25T10:38:48.707Z,97708.88
2022-09-25T10:41:53.117Z,97703.00
2022-09-25T10:44:58.059Z,97700.66
2022-09-25T10:48:20.311Z,97691.47
2022-09-25T10:51:22.666Z,97685.31
2022-09-25T10:54:24.694Z,97691.41
2022-09-25T10:57:35.788Z,97677.50
2022-09-25T11:00:54.527Z,97675.47
2022-09-25T11:03:57.741Z,97682.59
2022-09-25T11:07:07.381Z,97684.06
2022-09-25T11:10:20.156Z,97681.91
2022-09-25T11:13:46.689Z,97673.53
2022-09-25T11:16:53.851Z,97687.41
2022-09-25T11:20:21.438Z,97680.81
2022-09-25T11:23:46.142Z,97681.22
2022-09-25T11:27:11.436Z,97676.56
2022-09-25T11:30:17.641Z,97666.75
2022-09-25T11:33:49.352Z,97676.53
2022-09-25T11:37:07.420Z,97667.41
2022-09-25T11:40:46.174Z,97662.59
2022-09-25T11:44:09.953Z,97661.50
2022-09-25T11:47:27.821Z,97670.34
2022-09-25T11:50:45.608Z,97682.50
2022-09-25T11:53:53.357Z,97670.13
2022-09-25T11:57:15.972Z,97671.75
2022-09-25T12:00:26.722Z,97674.16
2022-09-25T12:03:37.499Z,97659.31
2022-09-25T12:06:56.367Z,97664.03
2022-09-25T12:10:36.802Z,97666.22
2022-09-25T12:13:50.480Z,97656.16
2022-09-25T12:17:10.999Z,97653.47
2022-09-25T12:20:34.640Z,97650.25
2022-09-25T12:24:04.736Z,97644.75
2022-09-25T12:27:27.719Z,97642.06
2022-09-25T12:30:45.787Z,97644.28
2022-09-25T12:34:09.969Z,97641.66
2022-09-25T12:37:44.015Z,97642.91
2022-09-25T12:41:04.888Z,97640.81
2022-09-25T12:44:18.189Z,97644.72
2022-09-25T12:47:33.651Z,97651.63
2022-09-25T12:51:15.941Z,97648.56
2022-09-25T12:54:18.176Z,97649.31
2022-09-25T12:57:42.113Z,97646.22
2022-09-25T13:00:51.587Z,97641.72
2022-09-25T13:04:15.513Z,97644.34
2022-09-25T13:08:03.451Z,97643.28
2022-09-25T13:11:32.304Z,97643.03
2022-09-25T13:14:43.295Z,97627.78
2022-09-25T13:17:45.684Z,97626.41
2022-09-25T13:20:57.063Z,97629.25
2022-09-25T13:24:04.330Z,97613.78
2022-09-25T13:27:20.401Z,97617.25
2022-09-25T13:30:29.792Z,97623.88
2022-09-25T13:33:54.033Z,97623.38
2022-09-25T13:36:57.147Z,97611.97
2022-09-25T13:40:20.651Z,97606.34
2022-09-25T13:43:34.875Z,97614.75
2022-09-25T13:46:41.135Z,97616.59
2022-09-25T13:49:55.083Z,97615.34
2022-09-25T13:53:23.378Z,97619.56
2022-09-25T13:56:29.191Z,97618.16
2022-09-25T13:59:38.589Z,97618.34
2022-09-25T14:02:47.452Z,97606.03
2022-09-25T14:05:53.365Z,97603.16
2022-09-25T14:09:15.020Z,97598.50
2022-09-25T14:12:27.192Z,97587.16
2022-09-25T14:15:38.419Z,97584.53
2022-09-25T14:18:51.327Z,97580.94
2022-09-25T14:21:57.865Z,97594.59
2022-09-25T14:25:01.392Z,97586.66
2022-09-25T14:28:20.998Z,97580.34
2022-09-25T14:31:32.539Z,97582.19
2022-09-25T14:35:05.081Z,97589.06
2022-09-25T14:38:36.198Z,97589.88
2022-09-25T14:41:47.123Z,97583.53
2022-09-25T14:45:31.395Z,97574.09
2022-09-25T14:48:47.021Z,97587.44
2022-09-25T14:51:54.887Z,97573.72
2022-09-25T14:55:01.003Z,97581.28
2022-09-25T14:58:03.663Z,97578.47
2022-09-25T15:01:32.707Z,97591.50
2022-09-25T15:04:41.604Z,97583.31
2022-09-25T15:07:46.093Z,97589.84
2022-09-25T15:10:48.773Z,97581.06
2022-09-25T15:13:55.813Z,97572.69
2022-09-25T15:17:16.576Z,97574.09
2022-09-25T15:20:23.355Z,97569.41
2022-09-25T15:23:31.749Z,97574.75
2022-09-25T15:26:50.075Z,97570.22
2022-09-25T15:29:52.809Z,97570.41
2022-09-25T15:33:00.535Z,97567.34
2022-09-25T15:36:20.968Z,97567.72
2022-09-25T15:39:28.955Z,97569.91
2022-09-25T15:42:31.354Z,97560.53
2022-09-25T15:45:38.139Z,97553.97
2022-09-25T15:48:52.687Z,97558.53
2022-09-25T15:52:02.291Z,97545.53
2022-09-25T15:55:16.978Z,97549.06
2022-09-25T15:58:29.373Z,97551.81
2022-09-25T16:01:55.420Z,97557.09
2022-09-25T16:04:57.999Z,97560.94
2022-09-25T16:08:25.308Z,97559.31
2022-09-25T16:11:33.006Z,97547.38
2022-09-25T16:14:35.909Z,97555.66
2022-09-25T16:17:44.008Z,97561.69
2022-09-25T16:21:29.097Z,97555.06
2022-09-25T16:24:34.339Z,97549.50
2022-09-25T16:27:39.513Z,97544.84
2022-09-25T16:31:10.831Z,97551.41
2022-09-25T16:34:25.895Z,97552.69
2022-09-25T16:37:33.505Z,97552.88
2022-09-25T16:40:38.971Z,97560.06
2022-09-25T16:43:44.488Z,97559.53
2022-09-25T16:47:13.322Z,97554.78
2022-09-25T16:50:15.879Z,97554.88
2022-09-25T16:53:19.063Z,97558.53
2022-09-25T16:56:26.173Z,97553.72
2022-09-25T16:59:29.388Z,97552.72
2022-09-25T17:02:40.024Z,97552.16
2022-09-25T17:05:44.287Z,97554.16
2022-09-25T17:08:53.164Z,97550.63
2022-09-25T17:12:08.844Z,97551.69
2022-09-25T17:15:24.187Z,97552.25
2022-09-25T17:18:26.481Z,97558.56
2022-09-25T17:21:28.968Z,97559.00
2022-09-25T17:24:31.681Z,97557.72
2022-09-25T17:27:33.938Z,97568.75
2022-09-25T17:30:37.722Z,97566.47
2022-09-25T17:33:40.696Z,97557.91
2022-09-25T17:36:43.267Z,97559.75
2022-09-25T17:39:46.529Z,97559.47
2022-09-25T17:42:48.387Z,97560.28
2022-09-25T17:45:51.189Z,97556.16
2022-09-25T17:48:54.837Z,97564.84
2022-09-25T17:51:59.972Z,97555.34
2022-09-25T17:55:03.121Z,97564.84
2022-09-25T17:58:10.191Z,97564.13
2022-09-25T18:01:26.313Z,97559.56
2022-09-25T18:04:31.879Z,97563.09
2022-09-25T18:07:34.794Z,97562.63
2022-09-25T18:10:44.821Z,97568.63
2022-09-25T18:13:47.494Z,97566.75
2022-09-25T18:16:49.598Z,97576.28
2022-09-25T18:20:11.584Z,97574.19
2022-09-25T18:23:19.316Z,97564.19
2022-09-25T18:26:31.936Z,97573.53
2022-09-25T18:29:38.615Z,97577.97
2022-09-25T18:32:40.950Z,97573.88
2022-09-25T18:35:46.136Z,97567.28
2022-09-25T18:38:49.909Z,97561.44
2022-09-25T18:41:52.807Z,97567.47
2022-09-25T18:44:55.809Z,97570.53
2022-09-25T18:47:58.818Z,97574.06
2022-09-25T18:51:07.382Z,97573.72
2022-09-25T18:54:15.710Z,97573.19
2022-09-25T18:57:18.922Z,97563.16
2022-09-25T19:00:21.171Z,97568.91
2022-09-25T19:03:23.676Z,97567.28
2022-09-25T19:06:27.162Z,97562.63
2022-09-25T19:09:35.866Z,97565.34
2022-09-25T19:12:40.676Z,97566.78
2022-09-25T19:15:44.944Z,97553.88
2022-09-25T19:18:51.333Z,97558.78
2022-09-25T19:21:54.130Z,97551.31
2022-09-25T19:24:57.797Z,97557.28
2022-09-25T19:28:00.927Z,97552.25
2022-09-25T19:31:22.201Z,97545.88
2022-09-25T19:34:27.851Z,97547.22
2022-09-25T19:37:32.955Z,97541.00
2022-09-25T19:40:39.005Z,97540.84
2022-09-25T19:43:44.912Z,97539.16
2022-09-25T19:46:48.087Z,97536.63
2022-09-25T19:49:51.583Z,97537.38
2022-09-25T19:52:55.277Z,97535.50
2022-09-25T19:55:57.539Z,97547.78
2022-09-25T19:58:59.808Z,97537.69
2022-09-25T20:02:03.471Z,97540.84
2022-09-25T20:05:06.988Z,97538.69
2022-09-25T20:08:09.387Z,97541.53
2022-09-25T20:11:12.781Z,97529.88
2022-09-25T20:14:14.751Z,97525.75
2022-09-25T20:17:16.834Z,97527.41
2022-09-25T20:20:19.353Z,97527.78
2022-09-25T20:23:21.419Z,97535.25
2022-09-25T20:26:24.418Z,97526.69
2022-09-25T20:29:26.590Z,97515.22
2022-09-25T20:32:28.744Z,97516.38
2022-09-25T20:35:31.064Z,97515.56
2022-09-25T20:38:33.989Z,97514.78
2022-09-25T20:41:36.474Z,97513.88
2022-09-25T20:44:38.460Z,97500.81
2022-09-25T20:47:45.809Z,97496.91
2022-09-25T20:50:52.189Z,97507.44
2022-09-25T20:53:59.658Z,97498.28
2022-09-25T20:57:01.627Z,97501.50
2022-09-25T21:00:04.579Z,97501.78
2022-09-25T21:03:06.815Z,97501.44
2022-09-25T21:06:12.631Z,97501.13
2022-09-25T21:09:25.959Z,97489.53
2022-09-25T21:12:28.511Z,97482.78
2022-09-25T21:15:32.068Z,97482.69
2022-09-25T21:18:36.061Z,97489.94
2022-09-25T21:21:39.551Z,97488.88
2022-09-25T21:24:47.707Z,97483.91
2022-09-25T21:27:57.541Z,97483.19
2022-09-25T21:31:17.726Z,97487.81
2022-09-25T21:34:21.143Z,97471.34
2022-09-25T21:37:27.814Z,97467.44
2022-09-25T21:40:37.407Z,97459.88
2022-09-25T21:43:41.482Z,97469.66
2022-09-25T21:46:45.652Z,97454.47
2022-09-25T21:49:47.849Z,97447.09
2022-09-25T21:52:50.594Z,97441.63
2022-09-25T21:56:04.247Z,97434.19
2022-09-25T21:59:12.191Z,97433.59
2022-09-25T22:02:15.376Z,97431.41
2022-09-25T22:05:17.625Z,97428.97
2022-09-25T22:08:21.495Z,97434.59
2022-09-25T22:11:24.539Z,97433.41
2022-09-25T22:14:26.942Z,97429.31
2022-09-25T22:17:29.489Z,97428.22
2022-09-25T22:20:33.534Z,97426.56
2022-09-25T22:23:36.058Z,97422.16
2022-09-25T22:26:41.399Z,97412.03
2022-09-25T22:29:44.132Z,97404.31
2022-09-25T22:32:46.466Z,97401.69
2022-09-25T22:35:48.623Z,97397.75
2022-09-25T22:38:50.935Z,97395.59
2022-09-25T22:41:55.334Z,97397.41
2022-09-25T22:44:57.585Z,97400.75
2022-09-25T22:48:00.605Z,97402.47
2022-09-25T22:51:08.396Z,97397.19
2022-09-25T22:54:14.017Z,97400.00
2022-09-25T22:57:16.220Z,97387.81
2022-09-25T23:00:18.136Z,97396.38
2022-09-25T23:03:22.443Z,97396.00
2022-09-25T23:06:27.200Z,97393.47
2022-09-25T23:09:28.953Z,97387.16
2022-09-25T23:12:31.172Z,97393.47
2022-09-25T23:15:33.638Z,97391.94
2022-09-25T23:18:36.633Z,97389.28
2022-09-25T23:21:38.485Z,97384.38
2022-09-25T23:24:40.190Z,97381.88
2022-09-25T23:27:42.104Z,97389.31
2022-09-25T23:30:43.947Z,97385.06
2022-09-25T23:33:46.140Z,97379.88
2022-09-25T23:36:48.264Z,97378.75
2022-09-25T23:39:51.296Z,97372.28
2022-09-25T23:42:54.598Z,97374.59
2022-09-25T23:45:56.489Z,97359.50
2022-09-25T23:48:59.393Z,97354.16
2022-09-25T23:52:01.438Z,97352.81
2022-09-25T23:55:03.711Z,97360.50
2022-09-25T23:58:06.082Z,97343.31
